Frenchtown Township, Maine
Current Conditions -  °F | °C
As of 2:53 AM on Tuesday 21 Oct 2014 (Local Time) from KMLT Reporting Station
Broken Clouds Broken Clouds  
Wind Chill: 34°   Ceiling: 7500
Heat Index: 34°   Visibility: 10mi
Dew Point: 31°   Wind: 0mph
Humidity: 89%   Direction: NA
Pressure: 30.02"   Gusts: NA
Location:  45.7313°N, 69.33°W
Report Text: KMLT 210653Z AUTO 00000KT 10SM BKN075 01/M01 A3002 RMK AO2 SLP175 T00111006
Loading
Personal Weather Stations






























Interactive Weather Map
Tropical Storm Tracking
New forecast layout! Learn more

10-Day Weather Forecast

Advertisements
Track Severe Weather on mobile